Weather search by city/station or by Location Indicator (LI)

Please do one of the following:
a) Search the weather station by station, city or country name and click Search button
b) Enter the four-character Location Indicator (i.e. EFHK = Helsinki) and click Submit button

a) Search the station:   

b) Location Indicator:  

The ICAO Location Indicator code is explained here.

METAR = EFHK 201620Z 11009KT 080V140 9999 FEW055CB 24/12 Q1009 BECMG FEW060

STATIONEFHK
NAMEHelsinki/Vantaa Arpt, --, FI
OBSERVED20.06.2019 19:20 (20.06.2019 16:20 UTC), 20 min ago
TEMPERATURE24.0°C ( 75°F)
WINDESE (110 degrees) at 10 MPH (9 knots; 4.6 m/s)
HUMIDITY47%
HEATINDEX25.6°C (78°F)
PRESSURE1008.8 hPa